Strona główna
METAR-TAF:

METAR-TAF

Lotnisko :

Port lotniczy Bolonia

Bolonia, Włochy

Szerokość geograficzna: 44-32N, Długość geograficzna: 011-18E, wysokość: 36 m

Aktualna obserwacja pogody

Raport powstał 33 minut temu, godzina 02:50 UTC
Wiatr 10 kt od południowo-południowy zachód
Temperatura 24°C
Wilgotność 69%
Ciśnienie 1016 hPa
Widzialność 10 km lub więcej
Brak chmur poniżej 1500 m i brak chmur cumulonimbus

METAR: LIPE 240250Z 20010KT CAVOK 24/18 Q1016

czas: 05:23 (03:23 UTC)

Prognoza

Raport powstał 4 godziny i 23 minut temu, godzina 23:00 UTC
Prognoza ważna od 24 godzina 00 UTC do 24 godzina 24 UTC
Wiatr 4 kt z kierunków zmiennych
Widzialność 10 km lub więcej
Brak chmur poniżej 1500 m i brak chmur cumulonimbus
Stopniowe zmiany
od 24 godzina 10 UTC do 24 godzina 12 UTC
Wiatr 10 kt od wschód
Stopniowe zmiany
od 24 godzina 16 UTC do 24 godzina 18 UTC
Wiatr 5 kt z kierunków zmiennych

TAF: LIPE 232300Z 2400/2424 VRB04KT CAVOK BECMG 2410/2412 10010KT BECMG 2416/2418 VRB05KT

Obserwacja i prognoza pogody dla ponad 4000 lotnisk (raport METAR i TAF).

Dostępne stacje oznaczono żółtymi i czerwonymi punktami na mapie.

Najedź kursorem aby zobaczyć nazwę stacji.

Kliknij aby zobaczyć obserwacje i prognozy pogody.

Aby zmienić mapę: kliknij na zielony przycisk z czarnym krzyżykiem, aby powiększyć; na zielony przycisk z myślnikiem, aby pomniejszyć; na zielone strzałki, aby przejść do map sąsiednich.


METAR-TAF: